sensor_id;sensor_type;location;lat;lon;timestamp;pressure;altitude;pressure_sealevel;temperature;humidity
56400;BME280;42298;53.638;9.876;2022-09-09T00:04:09;100606.41;;;18.34;78.02
56400;BME280;42298;53.638;9.876;2022-09-09T00:06:45;100577.78;;;18.18;78.28
56400;BME280;42298;53.638;9.876;2022-09-09T00:11:43;100587.00;;;18.37;78.46
56400;BME280;42298;53.638;9.876;2022-09-09T00:16:53;100556.53;;;18.29;78.24
56400;BME280;42298;53.638;9.876;2022-09-09T00:19:25;100594.50;;;18.52;77.41
56400;BME280;42298;53.638;9.876;2022-09-09T00:25:27;100601.59;;;18.50;77.58
56400;BME280;42298;53.638;9.876;2022-09-09T00:27:55;100583.31;;;18.33;77.92
56400;BME280;42298;53.638;9.876;2022-09-09T00:30:31;100602.50;;;18.54;78.20
56400;BME280;42298;53.638;9.876;2022-09-09T00:33:00;100585.63;;;18.47;77.55
56400;BME280;42298;53.638;9.876;2022-09-09T00:35:31;100596.22;;;18.60;78.14
56400;BME280;42298;53.638;9.876;2022-09-09T00:38:01;100590.59;;;18.57;77.66
56400;BME280;42298;53.638;9.876;2022-09-09T00:40:39;100597.50;;;18.63;78.08
56400;BME280;42298;53.638;9.876;2022-09-09T00:43:28;100593.91;;;18.62;77.54
56400;BME280;42298;53.638;9.876;2022-09-09T00:46:26;100599.19;;;18.67;77.94
56400;BME280;42298;53.638;9.876;2022-09-09T00:57:27;100590.50;;;18.72;77.48
56400;BME280;42298;53.638;9.876;2022-09-09T01:00:17;100603.34;;;18.77;77.11
56400;BME280;42298;53.638;9.876;2022-09-09T01:03:06;100597.34;;;18.75;77.71
56400;BME280;42298;53.638;9.876;2022-09-09T01:05:43;100587.06;;;18.79;77.11
56400;BME280;42298;53.638;9.876;2022-09-09T01:10:49;100570.03;;;18.65;76.51
56400;BME280;42298;53.638;9.876;2022-09-09T01:13:35;100565.34;;;18.69;77.69
56400;BME280;42298;53.638;9.876;2022-09-09T01:16:04;100552.72;;;18.56;76.91
56400;BME280;42298;53.638;9.876;2022-09-09T01:18:40;100575.03;;;18.75;77.22
56400;BME280;42298;53.638;9.876;2022-09-09T01:26:45;100593.44;;;18.60;76.76
56400;BME280;42298;53.638;9.876;2022-09-09T01:29:16;100565.03;;;18.55;76.80
56400;BME280;42298;53.638;9.876;2022-09-09T01:31:53;100589.00;;;18.75;76.24
56400;BME280;42298;53.638;9.876;2022-09-09T01:34:20;100599.69;;;18.73;76.06
56400;BME280;42298;53.638;9.876;2022-09-09T01:36:57;100569.16;;;18.61;75.24
56400;BME280;42298;53.638;9.876;2022-09-09T01:39:24;100586.34;;;18.63;76.00
56400;BME280;42298;53.638;9.876;2022-09-09T01:41:50;100593.91;;;18.62;75.38
56400;BME280;42298;53.638;9.876;2022-09-09T01:44:16;100588.19;;;18.55;76.15
56400;BME280;42298;53.638;9.876;2022-09-09T01:46:43;100559.63;;;18.43;75.85
56400;BME280;42298;53.638;9.876;2022-09-09T01:49:09;100572.97;;;18.53;75.90
56400;BME280;42298;53.638;9.876;2022-09-09T01:51:36;100543.91;;;18.35;75.83
56400;BME280;42298;53.638;9.876;2022-09-09T01:54:03;100553.88;;;18.36;76.01
56400;BME280;42298;53.638;9.876;2022-09-09T01:59:49;100592.06;;;18.51;75.93
56400;BME280;42298;53.638;9.876;2022-09-09T02:02:24;100585.09;;;18.41;75.82
56400;BME280;42298;53.638;9.876;2022-09-09T02:05:04;100579.50;;;18.41;76.00
56400;BME280;42298;53.638;9.876;2022-09-09T02:07:42;100583.38;;;18.37;75.79
56400;BME280;42298;53.638;9.876;2022-09-09T02:10:18;100562.66;;;18.19;76.47
56400;BME280;42298;53.638;9.876;2022-09-09T02:12:47;100575.56;;;18.27;76.31
56400;BME280;42298;53.638;9.876;2022-09-09T02:15:30;100570.72;;;18.24;77.04
56400;BME280;42298;53.638;9.876;2022-09-09T02:17:58;100585.63;;;18.31;76.92
56400;BME280;42298;53.638;9.876;2022-09-09T02:20:25;100589.66;;;18.34;76.97
56400;BME280;42298;53.638;9.876;2022-09-09T02:22:53;100578.97;;;18.36;76.38
56400;BME280;42298;53.638;9.876;2022-09-09T02:25:22;100577.09;;;18.40;76.19
56400;BME280;42298;53.638;9.876;2022-09-09T02:27:50;100575.94;;;18.41;76.04
56400;BME280;42298;53.638;9.876;2022-09-09T02:30:17;100556.56;;;18.32;75.87
56400;BME280;42298;53.638;9.876;2022-09-09T02:32:43;100584.34;;;18.44;74.74
56400;BME280;42298;53.638;9.876;2022-09-09T02:35:14;100578.09;;;18.32;75.66
56400;BME280;42298;53.638;9.876;2022-09-09T02:37:42;100566.72;;;18.21;74.68
56400;BME280;42298;53.638;9.876;2022-09-09T02:40:11;100551.03;;;17.98;75.27
56400;BME280;42298;53.638;9.876;2022-09-09T02:42:42;100577.63;;;18.11;75.77
56400;BME280;42298;53.638;9.876;2022-09-09T02:45:10;100575.56;;;18.08;75.49
56400;BME280;42298;53.638;9.876;2022-09-09T02:47:58;100574.00;;;18.10;75.66
56400;BME280;42298;53.638;9.876;2022-09-09T02:50:39;100581.72;;;18.17;75.94
56400;BME280;42298;53.638;9.876;2022-09-09T02:53:15;100574.69;;;18.23;75.39
56400;BME280;42298;53.638;9.876;2022-09-09T02:55:58;100559.50;;;18.20;75.36
56400;BME280;42298;53.638;9.876;2022-09-09T02:58:25;100533.22;;;18.02;74.71
56400;BME280;42298;53.638;9.876;2022-09-09T03:00:51;100546.34;;;18.02;75.66
56400;BME280;42298;53.638;9.876;2022-09-09T03:03:18;100543.38;;;17.95;74.59
56400;BME280;42298;53.638;9.876;2022-09-09T03:05:45;100578.53;;;17.99;74.83
56400;BME280;42298;53.638;9.876;2022-09-09T03:08:11;100576.94;;;17.83;74.68
56400;BME280;42298;53.638;9.876;2022-09-09T03:10:36;100573.53;;;17.74;75.41
56400;BME280;42298;53.638;9.876;2022-09-09T03:13:02;100585.50;;;17.74;75.47
56400;BME280;42298;53.638;9.876;2022-09-09T03:15:29;100579.47;;;17.72;75.37
56400;BME280;42298;53.638;9.876;2022-09-09T03:17:56;100562.13;;;17.63;75.68
56400;BME280;42298;53.638;9.876;2022-09-09T03:20:23;100576.88;;;17.79;75.71
56400;BME280;42298;53.638;9.876;2022-09-09T03:22:48;100585.97;;;17.76;74.80
56400;BME280;42298;53.638;9.876;2022-09-09T03:25:14;100587.81;;;17.72;74.16
56400;BME280;42298;53.638;9.876;2022-09-09T03:27:40;100562.78;;;17.57;75.60
56400;BME280;42298;53.638;9.876;2022-09-09T03:30:05;100566.91;;;17.63;75.05
56400;BME280;42298;53.638;9.876;2022-09-09T03:32:31;100571.03;;;17.69;75.56
56400;BME280;42298;53.638;9.876;2022-09-09T03:34:56;100577.34;;;17.66;75.48
56400;BME280;42298;53.638;9.876;2022-09-09T03:37:22;100550.47;;;17.58;75.21
56400;BME280;42298;53.638;9.876;2022-09-09T03:39:48;100568.25;;;17.69;75.09
56400;BME280;42298;53.638;9.876;2022-09-09T03:42:14;100567.66;;;17.60;75.13
56400;BME280;42298;53.638;9.876;2022-09-09T03:44:40;100565.75;;;17.48;75.03
56400;BME280;42298;53.638;9.876;2022-09-09T03:47:07;100540.69;;;17.33;75.63
56400;BME280;42298;53.638;9.876;2022-09-09T03:49:32;100542.13;;;17.27;74.20
56400;BME280;42298;53.638;9.876;2022-09-09T03:51:57;100576.69;;;17.41;73.75
56400;BME280;42298;53.638;9.876;2022-09-09T03:54:25;100590.16;;;17.39;74.11
56400;BME280;42298;53.638;9.876;2022-09-09T03:56:50;100586.56;;;17.39;75.54
56400;BME280;42298;53.638;9.876;2022-09-09T03:59:16;100575.19;;;17.44;74.81
56400;BME280;42298;53.638;9.876;2022-09-09T04:01:41;100581.47;;;17.41;73.44
56400;BME280;42298;53.638;9.876;2022-09-09T04:04:07;100591.69;;;17.37;73.40
56400;BME280;42298;53.638;9.876;2022-09-09T04:06:33;100571.09;;;17.10;74.33
56400;BME280;42298;53.638;9.876;2022-09-09T04:08:59;100577.91;;;17.12;74.34
56400;BME280;42298;53.638;9.876;2022-09-09T04:11:27;100586.47;;;17.20;74.77
56400;BME280;42298;53.638;9.876;2022-09-09T04:13:52;100592.75;;;17.17;75.29
56400;BME280;42298;53.638;9.876;2022-09-09T04:16:18;100591.31;;;17.23;74.12
56400;BME280;42298;53.638;9.876;2022-09-09T04:18:43;100594.47;;;17.21;74.16
56400;BME280;42298;53.638;9.876;2022-09-09T04:21:09;100568.94;;;17.03;74.31
56400;BME280;42298;53.638;9.876;2022-09-09T04:23:37;100583.31;;;17.05;74.16
56400;BME280;42298;53.638;9.876;2022-09-09T04:26:03;100594.19;;;17.10;72.98
56400;BME280;42298;53.638;9.876;2022-09-09T04:28:31;100600.47;;;17.07;73.26
56400;BME280;42298;53.638;9.876;2022-09-09T04:30:56;100602.69;;;17.02;73.23
56400;BME280;42298;53.638;9.876;2022-09-09T04:33:25;100588.75;;;16.86;72.42
56400;BME280;42298;53.638;9.876;2022-09-09T04:35:53;100593.38;;;16.82;72.48
56400;BME280;42298;53.638;9.876;2022-09-09T04:38:20;100597.09;;;16.86;72.69
56400;BME280;42298;53.638;9.876;2022-09-09T04:40:48;100594.19;;;16.83;73.68
56400;BME280;42298;53.638;9.876;2022-09-09T04:43:14;100603.03;;;17.00;73.89
56400;BME280;42298;53.638;9.876;2022-09-09T04:45:40;100604.75;;;17.05;73.59
56400;BME280;42298;53.638;9.876;2022-09-09T04:48:06;100614.81;;;17.09;73.39
56400;BME280;42298;53.638;9.876;2022-09-09T04:50:32;100614.97;;;17.01;73.37
56400;BME280;42298;53.638;9.876;2022-09-09T04:53:03;100620.66;;;17.04;72.56
56400;BME280;42298;53.638;9.876;2022-09-09T04:55:30;100614.25;;;17.04;74.11
56400;BME280;42298;53.638;9.876;2022-09-09T04:57:56;100624.22;;;17.05;73.90
56400;BME280;42298;53.638;9.876;2022-09-09T05:00:22;100618.94;;;17.00;73.20
56400;BME280;42298;53.638;9.876;2022-09-09T05:02:48;100617.16;;;17.07;73.79
56400;BME280;42298;53.638;9.876;2022-09-09T05:05:13;100613.38;;;17.15;72.84
56400;BME280;42298;53.638;9.876;2022-09-09T05:07:38;100610.69;;;17.19;72.77
56400;BME280;42298;53.638;9.876;2022-09-09T05:10:04;100593.91;;;17.00;74.04
56400;BME280;42298;53.638;9.876;2022-09-09T05:12:30;100617.69;;;17.13;73.76
56400;BME280;42298;53.638;9.876;2022-09-09T05:14:56;100620.38;;;17.09;73.68
56400;BME280;42298;53.638;9.876;2022-09-09T05:17:22;100619.59;;;17.09;73.55
56400;BME280;42298;53.638;9.876;2022-09-09T05:19:47;100619.94;;;17.07;73.94
56400;BME280;42298;53.638;9.876;2022-09-09T05:22:12;100628.00;;;17.12;73.78
56400;BME280;42298;53.638;9.876;2022-09-09T05:24:38;100629.19;;;17.11;74.49
56400;BME280;42298;53.638;9.876;2022-09-09T05:27:04;100631.72;;;17.17;74.13
56400;BME280;42298;53.638;9.876;2022-09-09T05:29:31;100626.59;;;17.18;74.49
56400;BME280;42298;53.638;9.876;2022-09-09T05:31:59;100629.94;;;17.24;74.44
56400;BME280;42298;53.638;9.876;2022-09-09T05:34:24;100626.25;;;17.36;74.46
56400;BME280;42298;53.638;9.876;2022-09-09T05:36:50;100632.84;;;17.43;73.39
56400;BME280;42298;53.638;9.876;2022-09-09T05:39:17;100630.06;;;17.43;73.78
56400;BME280;42298;53.638;9.876;2022-09-09T05:41:42;100636.47;;;17.44;74.45
56400;BME280;42298;53.638;9.876;2022-09-09T05:44:07;100620.34;;;17.37;74.01
56400;BME280;42298;53.638;9.876;2022-09-09T05:46:33;100645.88;;;17.55;73.72
56400;BME280;42298;53.638;9.876;2022-09-09T05:48:58;100640.66;;;17.53;72.79
56400;BME280;42298;53.638;9.876;2022-09-09T05:51:25;100624.84;;;17.57;73.83
56400;BME280;42298;53.638;9.876;2022-09-09T05:53:53;100620.47;;;17.56;73.87
56400;BME280;42298;53.638;9.876;2022-09-09T05:56:22;100630.94;;;17.78;73.87
56400;BME280;42298;53.638;9.876;2022-09-09T05:58:49;100642.00;;;17.90;73.19
56400;BME280;42298;53.638;9.876;2022-09-09T06:01:17;100647.09;;;18.04;73.76
56400;BME280;42298;53.638;9.876;2022-09-09T06:03:44;100658.34;;;18.23;74.06
56400;BME280;42298;53.638;9.876;2022-09-09T06:06:12;100659.59;;;18.41;73.48
56400;BME280;42298;53.638;9.876;2022-09-09T06:08:40;100654.56;;;18.50;72.91
56400;BME280;42298;53.638;9.876;2022-09-09T06:11:15;100647.41;;;18.49;73.03
56400;BME280;42298;53.638;9.876;2022-09-09T06:13:41;100664.81;;;18.61;72.69
56400;BME280;42298;53.638;9.876;2022-09-09T06:16:17;100677.00;;;18.72;73.03
56400;BME280;42298;53.638;9.876;2022-09-09T06:18:42;100674.28;;;18.76;73.31
56400;BME280;42298;53.638;9.876;2022-09-09T06:21:15;100677.31;;;18.86;73.48
56400;BME280;42298;53.638;9.876;2022-09-09T06:23:41;100674.06;;;18.84;72.43
56400;BME280;42298;53.638;9.876;2022-09-09T06:28:35;100674.38;;;18.98;73.16
56400;BME280;42298;53.638;9.876;2022-09-09T06:31:02;100681.19;;;19.01;72.13
56400;BME280;42298;53.638;9.876;2022-09-09T06:33:36;100654.84;;;18.79;72.15
56400;BME280;42298;53.638;9.876;2022-09-09T06:36:05;100674.75;;;18.97;72.83
56400;BME280;42298;53.638;9.876;2022-09-09T06:38:30;100675.84;;;18.92;72.79
56400;BME280;42298;53.638;9.876;2022-09-09T06:40:58;100677.03;;;18.91;73.61
56400;BME280;42298;53.638;9.876;2022-09-09T06:43:25;100662.63;;;18.89;72.27
56400;BME280;42298;53.638;9.876;2022-09-09T06:48:20;100658.97;;;18.85;72.91
56400;BME280;42298;53.638;9.876;2022-09-09T06:50:45;100654.56;;;19.04;72.84
56400;BME280;42298;53.638;9.876;2022-09-09T06:53:12;100643.66;;;19.18;72.92
56400;BME280;42298;53.638;9.876;2022-09-09T06:55:38;100660.59;;;19.70;72.41
56400;BME280;42298;53.638;9.876;2022-09-09T06:58:08;100668.94;;;19.89;71.83
56400;BME280;42298;53.638;9.876;2022-09-09T07:00:34;100639.25;;;19.81;70.88
56400;BME280;42298;53.638;9.876;2022-09-09T07:02:59;100674.06;;;20.09;70.62
56400;BME280;42298;53.638;9.876;2022-09-09T07:05:25;100675.19;;;20.27;70.15
56400;BME280;42298;53.638;9.876;2022-09-09T07:07:51;100642.00;;;20.03;69.43
56400;BME280;42298;53.638;9.876;2022-09-09T07:10:17;100662.88;;;20.09;70.21
56400;BME280;42298;53.638;9.876;2022-09-09T07:12:42;100653.03;;;20.15;70.08
56400;BME280;42298;53.638;9.876;2022-09-09T07:15:08;100674.50;;;20.34;70.27
56400;BME280;42298;53.638;9.876;2022-09-09T07:17:34;100674.31;;;20.49;69.56
56400;BME280;42298;53.638;9.876;2022-09-09T07:19:59;100650.16;;;20.38;69.43
56400;BME280;42298;53.638;9.876;2022-09-09T07:22:24;100663.09;;;20.46;69.16
56400;BME280;42298;53.638;9.876;2022-09-09T07:24:50;100685.09;;;20.47;68.14
56400;BME280;42298;53.638;9.876;2022-09-09T07:27:15;100680.25;;;20.44;68.96
56400;BME280;42298;53.638;9.876;2022-09-09T07:29:40;100692.38;;;20.55;69.07
56400;BME280;42298;53.638;9.876;2022-09-09T07:32:06;100656.56;;;20.38;68.78
56400;BME280;42298;53.638;9.876;2022-09-09T07:34:34;100660.22;;;20.42;67.84
56400;BME280;42298;53.638;9.876;2022-09-09T07:36:59;100703.34;;;20.67;68.32
56400;BME280;42298;53.638;9.876;2022-09-09T07:39:24;100655.31;;;20.36;67.58
56400;BME280;42298;53.638;9.876;2022-09-09T07:41:50;100695.19;;;20.55;68.08
56400;BME280;42298;53.638;9.876;2022-09-09T07:44:19;100663.47;;;20.44;68.32
56400;BME280;42298;53.638;9.876;2022-09-09T07:46:46;100674.38;;;20.53;67.07
56400;BME280;42298;53.638;9.876;2022-09-09T07:49:13;100687.63;;;20.59;66.42
56400;BME280;42298;53.638;9.876;2022-09-09T07:51:41;100679.50;;;20.47;67.50
56400;BME280;42298;53.638;9.876;2022-09-09T07:54:10;100687.16;;;20.54;67.20
56400;BME280;42298;53.638;9.876;2022-09-09T07:56:37;100686.13;;;20.65;68.62
56400;BME280;42298;53.638;9.876;2022-09-09T07:59:03;100674.84;;;20.58;67.51
56400;BME280;42298;53.638;9.876;2022-09-09T08:01:42;100695.53;;;20.80;67.59
56400;BME280;42298;53.638;9.876;2022-09-09T08:04:13;100691.78;;;20.95;67.08
56400;BME280;42298;53.638;9.876;2022-09-09T08:06:42;100731.78;;;21.29;67.00
56400;BME280;42298;53.638;9.876;2022-09-09T08:09:09;100725.41;;;21.32;64.97
56400;BME280;42298;53.638;9.876;2022-09-09T08:11:35;100709.31;;;21.22;65.49
56400;BME280;42298;53.638;9.876;2022-09-09T08:14:02;100728.34;;;21.42;65.44
56400;BME280;42298;53.638;9.876;2022-09-09T08:16:32;100698.59;;;21.31;65.49
56400;BME280;42298;53.638;9.876;2022-09-09T08:18:58;100691.53;;;21.40;65.90
56400;BME280;42298;53.638;9.876;2022-09-09T08:21:29;100718.06;;;21.90;64.79
56400;BME280;42298;53.638;9.876;2022-09-09T08:23:57;100733.88;;;22.08;63.27
56400;BME280;42298;53.638;9.876;2022-09-09T08:26:24;100714.13;;;21.98;62.91
56400;BME280;42298;53.638;9.876;2022-09-09T08:28:59;100724.72;;;22.18;63.04
56400;BME280;42298;53.638;9.876;2022-09-09T08:31:47;100741.88;;;22.53;63.38
56400;BME280;42298;53.638;9.876;2022-09-09T08:34:32;100708.53;;;22.48;61.38
56400;BME280;42298;53.638;9.876;2022-09-09T08:36:57;100719.88;;;22.63;61.69
56400;BME280;42298;53.638;9.876;2022-09-09T08:39:23;100690.88;;;22.44;61.87
56400;BME280;42298;53.638;9.876;2022-09-09T08:49:59;100741.53;;;22.59;61.64
56400;BME280;42298;53.638;9.876;2022-09-09T08:52:28;100733.94;;;22.66;61.53
56400;BME280;42298;53.638;9.876;2022-09-09T08:55:05;100720.41;;;22.82;61.59
56400;BME280;42298;53.638;9.876;2022-09-09T08:57:38;100704.75;;;22.78;61.37
56400;BME280;42298;53.638;9.876;2022-09-09T09:00:04;100746.56;;;22.97;59.54
56400;BME280;42298;53.638;9.876;2022-09-09T09:03:15;100738.41;;;22.74;59.86
56400;BME280;42298;53.638;9.876;2022-09-09T09:06:01;100733.94;;;22.66;60.51
56400;BME280;42298;53.638;9.876;2022-09-09T09:11:23;100739.41;;;22.48;58.96
56400;BME280;42298;53.638;9.876;2022-09-09T09:14:19;100763.25;;;22.69;60.99
56400;BME280;42298;53.638;9.876;2022-09-09T09:16:55;100746.88;;;22.81;60.87
56400;BME280;42298;53.638;9.876;2022-09-09T09:19:22;100757.00;;;22.96;60.41
56400;BME280;42298;53.638;9.876;2022-09-09T09:22:02;100739.28;;;22.85;61.02
56400;BME280;42298;53.638;9.876;2022-09-09T09:24:54;100735.31;;;22.90;59.14
56400;BME280;42298;53.638;9.876;2022-09-09T09:29:50;100732.91;;;22.95;59.60
56400;BME280;42298;53.638;9.876;2022-09-09T09:32:19;100738.22;;;23.14;57.92
56400;BME280;42298;53.638;9.876;2022-09-09T09:34:54;100752.06;;;23.44;59.47
56400;BME280;42298;53.638;9.876;2022-09-09T09:37:35;100734.78;;;23.45;57.82
56400;BME280;42298;53.638;9.876;2022-09-09T09:40:15;100737.97;;;23.40;57.34
56400;BME280;42298;53.638;9.876;2022-09-09T09:42:57;100743.56;;;23.37;56.95
56400;BME280;42298;53.638;9.876;2022-09-09T09:45:35;100757.25;;;23.42;57.22
56400;BME280;42298;53.638;9.876;2022-09-09T09:48:05;100754.41;;;23.38;55.87
56400;BME280;42298;53.638;9.876;2022-09-09T09:50:32;100749.59;;;23.35;57.19
56400;BME280;42298;53.638;9.876;2022-09-09T09:53:01;100707.81;;;23.34;57.86
56400;BME280;42298;53.638;9.876;2022-09-09T09:55:28;100720.34;;;23.68;55.77
56400;BME280;42298;53.638;9.876;2022-09-09T09:58:01;100727.63;;;23.93;55.06
56400;BME280;42298;53.638;9.876;2022-09-09T10:00:26;100728.91;;;24.06;54.91
56400;BME280;42298;53.638;9.876;2022-09-09T10:02:51;100739.78;;;24.40;54.51
56400;BME280;42298;53.638;9.876;2022-09-09T10:05:29;100757.84;;;24.77;52.33
56400;BME280;42298;53.638;9.876;2022-09-09T10:08:03;100753.78;;;24.96;51.43
56400;BME280;42298;53.638;9.876;2022-09-09T10:16:22;100733.09;;;25.44;50.61
56400;BME280;42298;53.638;9.876;2022-09-09T10:24:46;100754.38;;;26.21;49.20
56400;BME280;42298;53.638;9.876;2022-09-09T10:30:33;100743.59;;;26.09;49.12
56400;BME280;42298;53.638;9.876;2022-09-09T10:33:08;100760.34;;;26.34;49.50
56400;BME280;42298;53.638;9.876;2022-09-09T10:35:53;100750.72;;;26.24;48.91
56400;BME280;42298;53.638;9.876;2022-09-09T10:46:23;100740.66;;;26.27;49.40
56400;BME280;42298;53.638;9.876;2022-09-09T10:54:35;100755.69;;;26.64;45.72
56400;BME280;42298;53.638;9.876;2022-09-09T10:57:20;100757.59;;;26.74;47.39
56400;BME280;42298;53.638;9.876;2022-09-09T10:59:52;100749.13;;;26.74;45.96
56400;BME280;42298;53.638;9.876;2022-09-09T11:02:29;100749.06;;;26.78;46.95
56400;BME280;42298;53.638;9.876;2022-09-09T11:05:00;100725.03;;;26.56;46.42
56400;BME280;42298;53.638;9.876;2022-09-09T11:07:36;100701.56;;;26.22;46.67
56400;BME280;42298;53.638;9.876;2022-09-09T11:10:12;100706.03;;;26.19;46.45
56400;BME280;42298;53.638;9.876;2022-09-09T11:12:45;100716.16;;;26.09;46.87
56400;BME280;42298;53.638;9.876;2022-09-09T11:15:25;100744.66;;;26.26;47.78
56400;BME280;42298;53.638;9.876;2022-09-09T11:17:53;100739.66;;;25.99;48.54
56400;BME280;42298;53.638;9.876;2022-09-09T11:20:22;100704.75;;;25.69;48.34
56400;BME280;42298;53.638;9.876;2022-09-09T11:25:37;100735.22;;;25.95;48.98
56400;BME280;42298;53.638;9.876;2022-09-09T11:31:17;100744.28;;;25.62;49.59
56400;BME280;42298;53.638;9.876;2022-09-09T11:36:36;100736.75;;;25.41;49.67
56400;BME280;42298;53.638;9.876;2022-09-09T11:41:52;100742.28;;;25.55;49.92
56400;BME280;42298;53.638;9.876;2022-09-09T11:44:26;100737.94;;;25.44;49.19
56400;BME280;42298;53.638;9.876;2022-09-09T11:46:53;100739.88;;;25.54;49.29
56400;BME280;42298;53.638;9.876;2022-09-09T11:49:30;100744.28;;;25.65;49.16
56400;BME280;42298;53.638;9.876;2022-09-09T11:52:18;100723.88;;;25.26;49.29
56400;BME280;42298;53.638;9.876;2022-09-09T11:54:48;100726.66;;;25.40;50.40
56400;BME280;42298;53.638;9.876;2022-09-09T11:57:31;100746.97;;;25.83;48.92
56400;BME280;42298;53.638;9.876;2022-09-09T11:59:57;100747.81;;;25.73;48.76
56400;BME280;42298;53.638;9.876;2022-09-09T12:02:26;100742.34;;;25.48;48.56
56400;BME280;42298;53.638;9.876;2022-09-09T12:05:11;100746.41;;;25.30;48.62
56400;BME280;42298;53.638;9.876;2022-09-09T12:07:41;100737.94;;;25.30;49.78
56400;BME280;42298;53.638;9.876;2022-09-09T12:10:30;100733.88;;;25.52;49.41
56400;BME280;42298;53.638;9.876;2022-09-09T12:13:19;100722.88;;;25.68;49.34
56400;BME280;42298;53.638;9.876;2022-09-09T12:15:53;100728.59;;;25.54;48.54
56400;BME280;42298;53.638;9.876;2022-09-09T12:18:33;100735.00;;;25.61;49.34
56400;BME280;42298;53.638;9.876;2022-09-09T12:21:30;100721.78;;;25.48;49.24
56400;BME280;42298;53.638;9.876;2022-09-09T12:26:32;100733.47;;;25.53;48.88
56400;BME280;42298;53.638;9.876;2022-09-09T12:29:31;100733.66;;;25.87;49.61
56400;BME280;42298;53.638;9.876;2022-09-09T12:32:09;100709.75;;;26.05;47.37
56400;BME280;42298;53.638;9.876;2022-09-09T12:34:38;100734.75;;;26.51;47.82
56400;BME280;42298;53.638;9.876;2022-09-09T12:37:35;100738.09;;;26.39;45.80
56400;BME280;42298;53.638;9.876;2022-09-09T12:40:04;100738.00;;;26.05;46.54
56400;BME280;42298;53.638;9.876;2022-09-09T12:42:30;100728.94;;;25.63;47.63
56400;BME280;42298;53.638;9.876;2022-09-09T12:45:03;100725.06;;;25.43;49.60
56400;BME280;42298;53.638;9.876;2022-09-09T12:47:55;100717.06;;;25.17;51.34
56400;BME280;42298;53.638;9.876;2022-09-09T12:50:23;100711.81;;;25.22;51.55
56400;BME280;42298;53.638;9.876;2022-09-09T12:52:54;100718.66;;;25.35;51.89
56400;BME280;42298;53.638;9.876;2022-09-09T12:55:39;100712.16;;;25.42;51.13
56400;BME280;42298;53.638;9.876;2022-09-09T12:58:05;100726.28;;;25.38;51.12
56400;BME280;42298;53.638;9.876;2022-09-09T13:00:33;100718.66;;;25.25;51.45
56400;BME280;42298;53.638;9.876;2022-09-09T13:03:01;100697.34;;;25.17;51.64
56400;BME280;42298;53.638;9.876;2022-09-09T13:05:38;100720.31;;;25.19;50.25
56400;BME280;42298;53.638;9.876;2022-09-09T13:08:09;100701.06;;;24.93;50.68
56400;BME280;42298;53.638;9.876;2022-09-09T13:11:00;100707.16;;;24.63;52.31
56400;BME280;42298;53.638;9.876;2022-09-09T13:13:38;100722.03;;;24.57;54.39
56400;BME280;42298;53.638;9.876;2022-09-09T13:16:06;100721.66;;;24.33;56.02
56400;BME280;42298;53.638;9.876;2022-09-09T13:18:45;100680.22;;;23.85;56.57
56400;BME280;42298;53.638;9.876;2022-09-09T13:21:11;100691.44;;;23.67;57.43
56400;BME280;42298;53.638;9.876;2022-09-09T13:23:37;100680.94;;;23.36;59.19
56400;BME280;42298;53.638;9.876;2022-09-09T13:26:20;100734.94;;;22.40;65.21
56400;BME280;42298;53.638;9.876;2022-09-09T13:28:47;100737.31;;;21.55;65.16
56400;BME280;42298;53.638;9.876;2022-09-09T13:31:33;100705.41;;;21.00;66.73
56400;BME280;42298;53.638;9.876;2022-09-09T13:34:13;100735.84;;;21.02;66.40
56400;BME280;42298;53.638;9.876;2022-09-09T13:36:40;100747.22;;;20.86;68.22
56400;BME280;42298;53.638;9.876;2022-09-09T13:39:15;100731.44;;;20.74;69.20
56400;BME280;42298;53.638;9.876;2022-09-09T13:41:44;100721.75;;;20.68;67.34
56400;BME280;42298;53.638;9.876;2022-09-09T13:44:19;100756.06;;;20.92;66.07
56400;BME280;42298;53.638;9.876;2022-09-09T13:46:45;100742.38;;;20.83;64.58
56400;BME280;42298;53.638;9.876;2022-09-09T13:51:42;100774.44;;;20.89;63.36
56400;BME280;42298;53.638;9.876;2022-09-09T13:54:14;100777.50;;;20.80;63.18
56400;BME280;42298;53.638;9.876;2022-09-09T13:56:42;100766.88;;;20.63;62.68
56400;BME280;42298;53.638;9.876;2022-09-09T13:59:16;100784.50;;;20.67;63.64
56400;BME280;42298;53.638;9.876;2022-09-09T14:01:42;100765.22;;;20.62;64.06
56400;BME280;42298;53.638;9.876;2022-09-09T14:04:08;100765.88;;;20.52;64.59
56400;BME280;42298;53.638;9.876;2022-09-09T14:06:35;100731.56;;;20.29;65.62
56400;BME280;42298;53.638;9.876;2022-09-09T14:09:04;100732.78;;;20.32;65.69
56400;BME280;42298;53.638;9.876;2022-09-09T14:11:29;100738.56;;;20.42;66.12
56400;BME280;42298;53.638;9.876;2022-09-09T14:13:54;100777.34;;;20.70;66.54
56400;BME280;42298;53.638;9.876;2022-09-09T14:16:21;100743.13;;;20.54;66.74
56400;BME280;42298;53.638;9.876;2022-09-09T14:18:47;100728.75;;;20.55;67.12
56400;BME280;42298;53.638;9.876;2022-09-09T14:21:13;100768.69;;;20.78;67.25
56400;BME280;42298;53.638;9.876;2022-09-09T14:23:42;100741.72;;;20.67;67.81
56400;BME280;42298;53.638;9.876;2022-09-09T14:26:08;100753.50;;;20.79;67.77
56400;BME280;42298;53.638;9.876;2022-09-09T14:28:35;100706.00;;;20.57;67.83
56400;BME280;42298;53.638;9.876;2022-09-09T14:31:02;100754.47;;;20.91;67.56
56400;BME280;42298;53.638;9.876;2022-09-09T14:33:29;100736.03;;;20.90;67.79
56400;BME280;42298;53.638;9.876;2022-09-09T14:36:01;100756.19;;;20.99;68.84
56400;BME280;42298;53.638;9.876;2022-09-09T14:38:33;100697.31;;;20.65;68.61
56400;BME280;42298;53.638;9.876;2022-09-09T14:41:02;100699.78;;;20.70;69.61
56400;BME280;42298;53.638;9.876;2022-09-09T14:43:28;100696.19;;;20.70;70.16